sensor_id;sensor_type;location;lat;lon;timestamp;P1;durP1;ratioP1;P2;durP2;ratioP2
12846;SDS011;6492;48.128;8.320;2023-09-12T00:02:34;9.18;;;8.20;;
12846;SDS011;6492;48.128;8.320;2023-09-12T00:06:36;8.77;;;7.43;;
12846;SDS011;6492;48.128;8.320;2023-09-12T00:10:39;9.00;;;8.10;;
12846;SDS011;6492;48.128;8.320;2023-09-12T00:14:41;8.45;;;7.65;;
12846;SDS011;6492;48.128;8.320;2023-09-12T00:18:43;9.82;;;8.48;;
12846;SDS011;6492;48.128;8.320;2023-09-12T00:22:45;8.57;;;7.78;;
12846;SDS011;6492;48.128;8.320;2023-09-12T00:26:49;9.55;;;8.38;;
12846;SDS011;6492;48.128;8.320;2023-09-12T00:30:51;8.55;;;7.65;;
12846;SDS011;6492;48.128;8.320;2023-09-12T00:34:53;9.63;;;8.73;;
12846;SDS011;6492;48.128;8.320;2023-09-12T00:38:54;9.40;;;8.50;;
12846;SDS011;6492;48.128;8.320;2023-09-12T00:42:58;9.43;;;8.52;;
12846;SDS011;6492;48.128;8.320;2023-09-12T00:47:00;9.25;;;8.35;;
12846;SDS011;6492;48.128;8.320;2023-09-12T00:51:03;8.82;;;8.02;;
12846;SDS011;6492;48.128;8.320;2023-09-12T00:55:06;9.13;;;8.23;;
12846;SDS011;6492;48.128;8.320;2023-09-12T00:59:11;9.02;;;7.30;;
12846;SDS011;6492;48.128;8.320;2023-09-12T01:03:13;8.40;;;7.60;;
12846;SDS011;6492;48.128;8.320;2023-09-12T01:07:15;7.60;;;6.90;;
12846;SDS011;6492;48.128;8.320;2023-09-12T01:11:17;9.32;;;8.27;;
12846;SDS011;6492;48.128;8.320;2023-09-12T01:15:21;9.88;;;8.55;;
12846;SDS011;6492;48.128;8.320;2023-09-12T01:19:23;9.40;;;8.50;;
12846;SDS011;6492;48.128;8.320;2023-09-12T01:23:30;8.90;;;8.10;;
12846;SDS011;6492;48.128;8.320;2023-09-12T01:27:46;9.73;;;8.45;;
12846;SDS011;6492;48.128;8.320;2023-09-12T01:31:49;9.85;;;8.63;;
12846;SDS011;6492;48.128;8.320;2023-09-12T01:35:53;8.27;;;7.47;;
12846;SDS011;6492;48.128;8.320;2023-09-12T01:39:56;9.77;;;8.82;;
12846;SDS011;6492;48.128;8.320;2023-09-12T01:44:00;8.82;;;8.02;;
12846;SDS011;6492;48.128;8.320;2023-09-12T01:48:04;7.72;;;7.03;;
12846;SDS011;6492;48.128;8.320;2023-09-12T01:52:07;9.27;;;8.37;;
12846;SDS011;6492;48.128;8.320;2023-09-12T01:56:10;8.55;;;7.72;;
12846;SDS011;6492;48.128;8.320;2023-09-12T02:00:14;8.98;;;8.18;;
12846;SDS011;6492;48.128;8.320;2023-09-12T02:04:19;8.67;;;7.87;;
12846;SDS011;6492;48.128;8.320;2023-09-12T02:08:21;9.32;;;8.52;;
12846;SDS011;6492;48.128;8.320;2023-09-12T02:12:23;9.13;;;8.32;;
12846;SDS011;6492;48.128;8.320;2023-09-12T02:16:26;9.10;;;8.30;;
12846;SDS011;6492;48.128;8.320;2023-09-12T02:20:28;9.18;;;8.32;;
12846;SDS011;6492;48.128;8.320;2023-09-12T02:24:30;9.23;;;8.13;;
12846;SDS011;6492;48.128;8.320;2023-09-12T02:28:35;8.27;;;7.47;;
12846;SDS011;6492;48.128;8.320;2023-09-12T02:32:38;9.32;;;8.40;;
12846;SDS011;6492;48.128;8.320;2023-09-12T02:36:40;9.30;;;7.57;;
12846;SDS011;6492;48.128;8.320;2023-09-12T02:40:41;8.75;;;7.93;;
12846;SDS011;6492;48.128;8.320;2023-09-12T02:44:43;9.00;;;8.13;;
12846;SDS011;6492;48.128;8.320;2023-09-12T02:48:46;8.02;;;7.28;;
12846;SDS011;6492;48.128;8.320;2023-09-12T02:52:48;8.63;;;7.85;;
12846;SDS011;6492;48.128;8.320;2023-09-12T02:56:50;9.77;;;8.88;;
12846;SDS011;6492;48.128;8.320;2023-09-12T03:00:52;7.93;;;7.18;;
12846;SDS011;6492;48.128;8.320;2023-09-12T03:04:56;7.45;;;6.75;;
12846;SDS011;6492;48.128;8.320;2023-09-12T03:08:57;8.02;;;7.30;;
12846;SDS011;6492;48.128;8.320;2023-09-12T03:12:59;8.50;;;7.70;;
12846;SDS011;6492;48.128;8.320;2023-09-12T03:17:01;9.13;;;8.23;;
12846;SDS011;6492;48.128;8.320;2023-09-12T03:21:05;7.30;;;6.60;;
12846;SDS011;6492;48.128;8.320;2023-09-12T03:25:07;7.90;;;7.10;;
12846;SDS011;6492;48.128;8.320;2023-09-12T03:29:09;8.07;;;6.70;;
12846;SDS011;6492;48.128;8.320;2023-09-12T03:33:10;7.60;;;6.90;;
12846;SDS011;6492;48.128;8.320;2023-09-12T03:37:13;7.00;;;6.40;;
12846;SDS011;6492;48.128;8.320;2023-09-12T03:41:15;7.50;;;6.70;;
12846;SDS011;6492;48.128;8.320;2023-09-12T03:45:17;6.97;;;6.38;;
12846;SDS011;6492;48.128;8.320;2023-09-12T03:49:19;6.68;;;6.07;;
12846;SDS011;6492;48.128;8.320;2023-09-12T03:53:22;7.65;;;6.97;;
12846;SDS011;6492;48.128;8.320;2023-09-12T03:57:24;8.35;;;7.50;;
12846;SDS011;6492;48.128;8.320;2023-09-12T04:01:26;8.35;;;7.43;;
12846;SDS011;6492;48.128;8.320;2023-09-12T04:05:29;7.55;;;6.75;;
12846;SDS011;6492;48.128;8.320;2023-09-12T04:09:34;7.57;;;6.88;;
12846;SDS011;6492;48.128;8.320;2023-09-12T04:13:36;7.50;;;6.75;;
12846;SDS011;6492;48.128;8.320;2023-09-12T04:17:38;7.72;;;6.47;;
12846;SDS011;6492;48.128;8.320;2023-09-12T04:21:40;9.10;;;7.00;;
12846;SDS011;6492;48.128;8.320;2023-09-12T04:25:45;7.68;;;6.88;;
12846;SDS011;6492;48.128;8.320;2023-09-12T04:29:48;8.00;;;6.82;;
12846;SDS011;6492;48.128;8.320;2023-09-12T04:33:50;8.23;;;7.22;;
12846;SDS011;6492;48.128;8.320;2023-09-12T04:37:52;6.80;;;6.20;;
12846;SDS011;6492;48.128;8.320;2023-09-12T04:41:55;7.05;;;6.35;;
12846;SDS011;6492;48.128;8.320;2023-09-12T04:45:57;7.72;;;6.93;;
12846;SDS011;6492;48.128;8.320;2023-09-12T04:49:59;7.45;;;6.85;;
12846;SDS011;6492;48.128;8.320;2023-09-12T04:54:01;8.00;;;6.82;;
12846;SDS011;6492;48.128;8.320;2023-09-12T04:58:05;7.88;;;7.18;;
12846;SDS011;6492;48.128;8.320;2023-09-12T05:02:07;7.65;;;6.85;;
12846;SDS011;6492;48.128;8.320;2023-09-12T05:06:09;7.85;;;7.07;;
12846;SDS011;6492;48.128;8.320;2023-09-12T05:10:11;8.00;;;7.20;;
12846;SDS011;6492;48.128;8.320;2023-09-12T05:14:14;7.85;;;7.15;;
12846;SDS011;6492;48.128;8.320;2023-09-12T05:18:16;7.53;;;6.82;;
12846;SDS011;6492;48.128;8.320;2023-09-12T05:22:18;7.95;;;7.15;;
12846;SDS011;6492;48.128;8.320;2023-09-12T05:26:26;7.97;;;7.22;;
12846;SDS011;6492;48.128;8.320;2023-09-12T05:30:30;7.70;;;7.05;;
12846;SDS011;6492;48.128;8.320;2023-09-12T05:34:32;7.88;;;6.97;;
12846;SDS011;6492;48.128;8.320;2023-09-12T05:38:33;6.47;;;5.88;;
12846;SDS011;6492;48.128;8.320;2023-09-12T05:42:36;8.48;;;7.57;;
12846;SDS011;6492;48.128;8.320;2023-09-12T05:46:39;7.88;;;7.18;;
12846;SDS011;6492;48.128;8.320;2023-09-12T05:50:41;8.27;;;7.55;;
12846;SDS011;6492;48.128;8.320;2023-09-12T05:54:44;7.85;;;7.05;;
12846;SDS011;6492;48.128;8.320;2023-09-12T05:58:46;8.07;;;7.38;;
12846;SDS011;6492;48.128;8.320;2023-09-12T06:02:57;7.45;;;6.75;;
12846;SDS011;6492;48.128;8.320;2023-09-12T06:06:59;7.13;;;6.53;;
12846;SDS011;6492;48.128;8.320;2023-09-12T06:11:03;6.85;;;6.15;;
12846;SDS011;6492;48.128;8.320;2023-09-12T06:15:05;8.32;;;7.53;;
12846;SDS011;6492;48.128;8.320;2023-09-12T06:19:09;9.95;;;7.60;;
12846;SDS011;6492;48.128;8.320;2023-09-12T06:23:11;7.32;;;6.65;;
12846;SDS011;6492;48.128;8.320;2023-09-12T06:27:13;8.40;;;7.60;;
12846;SDS011;6492;48.128;8.320;2023-09-12T06:31:18;8.85;;;8.07;;
12846;SDS011;6492;48.128;8.320;2023-09-12T06:35:22;9.10;;;8.13;;
12846;SDS011;6492;48.128;8.320;2023-09-12T06:39:24;7.82;;;7.07;;
12846;SDS011;6492;48.128;8.320;2023-09-12T06:43:25;9.18;;;8.27;;
12846;SDS011;6492;48.128;8.320;2023-09-12T06:47:27;8.00;;;7.22;;
12846;SDS011;6492;48.128;8.320;2023-09-12T06:51:30;7.75;;;7.05;;
12846;SDS011;6492;48.128;8.320;2023-09-12T06:59:40;7.00;;;6.30;;
12846;SDS011;6492;48.128;8.320;2023-09-12T07:03:42;8.20;;;7.38;;
12846;SDS011;6492;48.128;8.320;2023-09-12T07:07:45;8.35;;;7.55;;
12846;SDS011;6492;48.128;8.320;2023-09-12T07:11:53;7.78;;;6.97;;
12846;SDS011;6492;48.128;8.320;2023-09-12T07:15:56;7.93;;;7.22;;
12846;SDS011;6492;48.128;8.320;2023-09-12T07:20:04;7.63;;;7.03;;
12846;SDS011;6492;48.128;8.320;2023-09-12T07:24:12;8.32;;;7.63;;
12846;SDS011;6492;48.128;8.320;2023-09-12T07:28:14;9.13;;;8.23;;
12846;SDS011;6492;48.128;8.320;2023-09-12T07:32:16;9.50;;;8.60;;
12846;SDS011;6492;48.128;8.320;2023-09-12T07:36:23;9.30;;;8.40;;
12846;SDS011;6492;48.128;8.320;2023-09-12T07:40:26;9.00;;;8.05;;
12846;SDS011;6492;48.128;8.320;2023-09-12T07:44:28;9.05;;;8.15;;
12846;SDS011;6492;48.128;8.320;2023-09-12T07:48:30;8.60;;;7.80;;
12846;SDS011;6492;48.128;8.320;2023-09-12T07:52:33;8.20;;;7.40;;
12846;SDS011;6492;48.128;8.320;2023-09-12T07:56:37;7.80;;;7.10;;
12846;SDS011;6492;48.128;8.320;2023-09-12T08:00:38;8.43;;;7.72;;
12846;SDS011;6492;48.128;8.320;2023-09-12T08:04:40;9.57;;;8.68;;
12846;SDS011;6492;48.128;8.320;2023-09-12T08:08:42;8.30;;;7.50;;
12846;SDS011;6492;48.128;8.320;2023-09-12T08:12:45;9.38;;;8.48;;
12846;SDS011;6492;48.128;8.320;2023-09-12T08:16:47;7.25;;;6.65;;
12846;SDS011;6492;48.128;8.320;2023-09-12T08:20:49;8.00;;;7.25;;
12846;SDS011;6492;48.128;8.320;2023-09-12T08:24:51;7.50;;;6.80;;
12846;SDS011;6492;48.128;8.320;2023-09-12T08:28:54;8.10;;;7.30;;
12846;SDS011;6492;48.128;8.320;2023-09-12T08:32:55;10.30;;;7.85;;
12846;SDS011;6492;48.128;8.320;2023-09-12T08:36:57;10.20;;;8.63;;
12846;SDS011;6492;48.128;8.320;2023-09-12T08:40:59;9.00;;;8.20;;
12846;SDS011;6492;48.128;8.320;2023-09-12T08:45:02;10.98;;;10.02;;
12846;SDS011;6492;48.128;8.320;2023-09-12T08:49:05;8.45;;;7.75;;
12846;SDS011;6492;48.128;8.320;2023-09-12T08:53:09;8.55;;;7.85;;
12846;SDS011;6492;48.128;8.320;2023-09-12T08:57:11;8.45;;;7.75;;
12846;SDS011;6492;48.128;8.320;2023-09-12T09:01:15;8.52;;;7.80;;
12846;SDS011;6492;48.128;8.320;2023-09-12T09:05:20;9.07;;;7.95;;
12846;SDS011;6492;48.128;8.320;2023-09-12T09:09:23;9.40;;;7.88;;
12846;SDS011;6492;48.128;8.320;2023-09-12T09:13:25;9.00;;;7.82;;
12846;SDS011;6492;48.128;8.320;2023-09-12T09:17:28;8.63;;;7.93;;
12846;SDS011;6492;48.128;8.320;2023-09-12T09:21:31;8.95;;;8.18;;
12846;SDS011;6492;48.128;8.320;2023-09-12T09:25:34;8.63;;;7.93;;
12846;SDS011;6492;48.128;8.320;2023-09-12T09:29:47;8.27;;;7.57;;
12846;SDS011;6492;48.128;8.320;2023-09-12T09:33:50;8.68;;;7.97;;
12846;SDS011;6492;48.128;8.320;2023-09-12T09:37:52;7.88;;;7.15;;
12846;SDS011;6492;48.128;8.320;2023-09-12T09:41:55;8.77;;;7.65;;
12846;SDS011;6492;48.128;8.320;2023-09-12T09:45:57;7.90;;;7.20;;
12846;SDS011;6492;48.128;8.320;2023-09-12T09:50:01;7.43;;;6.82;;
12846;SDS011;6492;48.128;8.320;2023-09-12T09:54:03;7.93;;;6.85;;
12846;SDS011;6492;48.128;8.320;2023-09-12T09:58:08;6.95;;;6.35;;
12846;SDS011;6492;48.128;8.320;2023-09-12T10:02:18;7.57;;;6.90;;
12846;SDS011;6492;48.128;8.320;2023-09-12T10:06:23;6.82;;;6.32;;
12846;SDS011;6492;48.128;8.320;2023-09-12T10:10:26;7.22;;;6.47;;
12846;SDS011;6492;48.128;8.320;2023-09-12T10:14:30;6.80;;;6.18;;
12846;SDS011;6492;48.128;8.320;2023-09-12T10:18:35;8.30;;;6.47;;
12846;SDS011;6492;48.128;8.320;2023-09-12T10:22:46;6.30;;;5.80;;
12846;SDS011;6492;48.128;8.320;2023-09-12T10:26:53;7.05;;;5.90;;
12846;SDS011;6492;48.128;8.320;2023-09-12T10:30:57;6.88;;;6.28;;
12846;SDS011;6492;48.128;8.320;2023-09-12T10:35:00;7.68;;;6.88;;
12846;SDS011;6492;48.128;8.320;2023-09-12T10:39:05;7.47;;;6.88;;
12846;SDS011;6492;48.128;8.320;2023-09-12T10:43:08;7.20;;;6.60;;
12846;SDS011;6492;48.128;8.320;2023-09-12T10:47:12;7.45;;;6.72;;
12846;SDS011;6492;48.128;8.320;2023-09-12T10:51:14;14.15;;;6.70;;
12846;SDS011;6492;48.128;8.320;2023-09-12T10:55:19;7.43;;;6.72;;
12846;SDS011;6492;48.128;8.320;2023-09-12T10:59:21;7.32;;;6.72;;
12846;SDS011;6492;48.128;8.320;2023-09-12T11:03:37;6.85;;;6.35;;
12846;SDS011;6492;48.128;8.320;2023-09-12T11:07:44;6.47;;;5.88;;
12846;SDS011;6492;48.128;8.320;2023-09-12T11:11:48;7.10;;;6.45;;
12846;SDS011;6492;48.128;8.320;2023-09-12T11:16:09;6.88;;;6.25;;
12846;SDS011;6492;48.128;8.320;2023-09-12T11:20:21;7.15;;;6.50;;
12846;SDS011;6492;48.128;8.320;2023-09-12T11:24:24;15.10;;;6.40;;
12846;SDS011;6492;48.128;8.320;2023-09-12T11:28:30;7.50;;;6.25;;
12846;SDS011;6492;48.128;8.320;2023-09-12T11:32:34;6.50;;;6.00;;
12846;SDS011;6492;48.128;8.320;2023-09-12T11:36:38;6.97;;;6.38;;
12846;SDS011;6492;48.128;8.320;2023-09-12T11:40:42;6.40;;;5.85;;
12846;SDS011;6492;48.128;8.320;2023-09-12T11:44:47;6.80;;;6.20;;
12846;SDS011;6492;48.128;8.320;2023-09-12T11:48:50;6.40;;;6.00;;
12846;SDS011;6492;48.128;8.320;2023-09-12T11:52:57;6.93;;;6.30;;
12846;SDS011;6492;48.128;8.320;2023-09-12T11:57:01;6.50;;;5.90;;
12846;SDS011;6492;48.128;8.320;2023-09-12T12:01:05;6.72;;;6.13;;
12846;SDS011;6492;48.128;8.320;2023-09-12T12:05:07;6.45;;;5.95;;
12846;SDS011;6492;48.128;8.320;2023-09-12T12:09:09;7.13;;;6.43;;
12846;SDS011;6492;48.128;8.320;2023-09-12T12:13:11;6.57;;;6.07;;
12846;SDS011;6492;48.128;8.320;2023-09-12T12:17:18;6.57;;;6.07;;
12846;SDS011;6492;48.128;8.320;2023-09-12T12:21:20;6.47;;;5.90;;
12846;SDS011;6492;48.128;8.320;2023-09-12T12:25:22;6.50;;;6.00;;
12846;SDS011;6492;48.128;8.320;2023-09-12T12:29:24;7.03;;;6.28;;
12846;SDS011;6492;48.128;8.320;2023-09-12T12:33:27;6.97;;;6.38;;
12846;SDS011;6492;48.128;8.320;2023-09-12T12:37:30;7.32;;;6.63;;
12846;SDS011;6492;48.128;8.320;2023-09-12T12:41:32;6.60;;;6.10;;
12846;SDS011;6492;48.128;8.320;2023-09-12T12:45:36;7.07;;;6.47;;
12846;SDS011;6492;48.128;8.320;2023-09-12T12:49:39;7.53;;;6.82;;
12846;SDS011;6492;48.128;8.320;2023-09-12T12:53:41;7.40;;;6.80;;
12846;SDS011;6492;48.128;8.320;2023-09-12T12:57:44;7.05;;;6.43;;
12846;SDS011;6492;48.128;8.320;2023-09-12T13:01:48;7.30;;;6.60;;
12846;SDS011;6492;48.128;8.320;2023-09-12T13:05:53;6.95;;;6.22;;
12846;SDS011;6492;48.128;8.320;2023-09-12T13:09:55;7.10;;;6.60;;
12846;SDS011;6492;48.128;8.320;2023-09-12T13:13:56;6.80;;;6.20;;
12846;SDS011;6492;48.128;8.320;2023-09-12T13:17:58;7.75;;;7.05;;
12846;SDS011;6492;48.128;8.320;2023-09-12T13:22:01;8.25;;;6.60;;
12846;SDS011;6492;48.128;8.320;2023-09-12T13:26:03;6.75;;;6.15;;
12846;SDS011;6492;48.128;8.320;2023-09-12T13:30:09;7.10;;;6.55;;
12846;SDS011;6492;48.128;8.320;2023-09-12T13:34:12;6.82;;;6.30;;
12846;SDS011;6492;48.128;8.320;2023-09-12T13:38:15;6.57;;;6.07;;
12846;SDS011;6492;48.128;8.320;2023-09-12T13:42:18;7.22;;;6.63;;
12846;SDS011;6492;48.128;8.320;2023-09-12T13:46:21;7.20;;;6.50;;
12846;SDS011;6492;48.128;8.320;2023-09-12T13:50:22;6.78;;;6.18;;
12846;SDS011;6492;48.128;8.320;2023-09-12T13:54:26;7.57;;;6.53;;
12846;SDS011;6492;48.128;8.320;2023-09-12T13:58:27;6.65;;;6.15;;
12846;SDS011;6492;48.128;8.320;2023-09-12T14:02:29;6.63;;;6.13;;
12846;SDS011;6492;48.128;8.320;2023-09-12T14:06:32;6.63;;;6.03;;
12846;SDS011;6492;48.128;8.320;2023-09-12T14:10:36;6.95;;;6.45;;
12846;SDS011;6492;48.128;8.320;2023-09-12T14:14:38;6.05;;;5.45;;
12846;SDS011;6492;48.128;8.320;2023-09-12T14:18:40;6.32;;;5.88;;
12846;SDS011;6492;48.128;8.320;2023-09-12T14:22:42;7.82;;;6.03;;
12846;SDS011;6492;48.128;8.320;2023-09-12T14:26:45;6.40;;;5.82;;
12846;SDS011;6492;48.128;8.320;2023-09-12T14:30:47;6.13;;;5.60;;
12846;SDS011;6492;48.128;8.320;2023-09-12T14:34:50;6.40;;;5.90;;
12846;SDS011;6492;48.128;8.320;2023-09-12T14:38:51;6.30;;;5.80;;
12846;SDS011;6492;48.128;8.320;2023-09-12T14:42:55;6.47;;;5.88;;
12846;SDS011;6492;48.128;8.320;2023-09-12T14:46:56;6.82;;;6.22;;
12846;SDS011;6492;48.128;8.320;2023-09-12T14:50:58;6.80;;;6.18;;
12846;SDS011;6492;48.128;8.320;2023-09-12T14:55:01;6.57;;;6.00;;
12846;SDS011;6492;48.128;8.320;2023-09-12T14:59:04;6.10;;;5.60;;
12846;SDS011;6492;48.128;8.320;2023-09-12T15:03:06;6.68;;;5.90;;
12846;SDS011;6492;48.128;8.320;2023-09-12T15:07:08;6.05;;;5.55;;
12846;SDS011;6492;48.128;8.320;2023-09-12T15:11:10;6.30;;;5.70;;
12846;SDS011;6492;48.128;8.320;2023-09-12T15:15:13;6.97;;;6.38;;
12846;SDS011;6492;48.128;8.320;2023-09-12T15:19:24;6.68;;;6.00;;
12846;SDS011;6492;48.128;8.320;2023-09-12T15:23:26;6.18;;;5.68;;
12846;SDS011;6492;48.128;8.320;2023-09-12T15:27:28;7.07;;;6.40;;
12846;SDS011;6492;48.128;8.320;2023-09-12T15:31:32;6.30;;;5.78;;
12846;SDS011;6492;48.128;8.320;2023-09-12T15:35:33;6.22;;;5.40;;
12846;SDS011;6492;48.128;8.320;2023-09-12T15:39:35;7.78;;;7.07;;
12846;SDS011;6492;48.128;8.320;2023-09-12T15:48:09;8.02;;;7.30;;
12846;SDS011;6492;48.128;8.320;2023-09-12T15:52:11;7.80;;;7.10;;
12846;SDS011;6492;48.128;8.320;2023-09-12T15:56:14;7.68;;;7.07;;
12846;SDS011;6492;48.128;8.320;2023-09-12T16:00:16;7.45;;;6.85;;
12846;SDS011;6492;48.128;8.320;2023-09-12T16:04:19;8.30;;;7.50;;
12846;SDS011;6492;48.128;8.320;2023-09-12T16:08:21;8.48;;;7.55;;
12846;SDS011;6492;48.128;8.320;2023-09-12T16:12:23;8.65;;;7.95;;
12846;SDS011;6492;48.128;8.320;2023-09-12T16:16:24;8.07;;;7.30;;
12846;SDS011;6492;48.128;8.320;2023-09-12T16:20:30;8.50;;;7.68;;
12846;SDS011;6492;48.128;8.320;2023-09-12T16:24:31;8.23;;;7.47;;
12846;SDS011;6492;48.128;8.320;2023-09-12T16:28:33;7.40;;;6.78;;
12846;SDS011;6492;48.128;8.320;2023-09-12T16:32:36;7.95;;;7.28;;
12846;SDS011;6492;48.128;8.320;2023-09-12T16:36:40;7.75;;;7.00;;
12846;SDS011;6492;48.128;8.320;2023-09-12T16:40:41;7.35;;;6.65;;
12846;SDS011;6492;48.128;8.320;2023-09-12T16:44:43;7.05;;;6.45;;
12846;SDS011;6492;48.128;8.320;2023-09-12T16:48:45;6.88;;;6.18;;
12846;SDS011;6492;48.128;8.320;2023-09-12T16:52:49;6.57;;;5.97;;
12846;SDS011;6492;48.128;8.320;2023-09-12T16:56:50;5.82;;;5.32;;
12846;SDS011;6492;48.128;8.320;2023-09-12T17:00:52;6.70;;;6.10;;
12846;SDS011;6492;48.128;8.320;2023-09-12T17:04:54;7.00;;;6.30;;
12846;SDS011;6492;48.128;8.320;2023-09-12T17:08:57;7.55;;;6.20;;
12846;SDS011;6492;48.128;8.320;2023-09-12T17:13:01;5.72;;;5.28;;
12846;SDS011;6492;48.128;8.320;2023-09-12T17:17:03;6.25;;;5.68;;
12846;SDS011;6492;48.128;8.320;2023-09-12T17:21:07;6.68;;;6.03;;
12846;SDS011;6492;48.128;8.320;2023-09-12T17:25:10;6.65;;;5.70;;
12846;SDS011;6492;48.128;8.320;2023-09-12T17:29:13;6.13;;;5.60;;
12846;SDS011;6492;48.128;8.320;2023-09-12T17:33:15;6.88;;;5.78;;
12846;SDS011;6492;48.128;8.320;2023-09-12T17:37:35;6.20;;;5.60;;
12846;SDS011;6492;48.128;8.320;2023-09-12T17:41:38;6.80;;;5.70;;
12846;SDS011;6492;48.128;8.320;2023-09-12T17:45:40;6.55;;;5.95;;
12846;SDS011;6492;48.128;8.320;2023-09-12T17:49:48;6.32;;;5.82;;
12846;SDS011;6492;48.128;8.320;2023-09-12T17:53:50;8.43;;;6.65;;
12846;SDS011;6492;48.128;8.320;2023-09-12T17:57:55;8.23;;;6.20;;
12846;SDS011;6492;48.128;8.320;2023-09-12T18:01:59;7.97;;;6.25;;
12846;SDS011;6492;48.128;8.320;2023-09-12T18:06:05;6.72;;;5.78;;
12846;SDS011;6492;48.128;8.320;2023-09-12T18:10:13;6.80;;;6.00;;
12846;SDS011;6492;48.128;8.320;2023-09-12T18:14:16;6.18;;;5.57;;
12846;SDS011;6492;48.128;8.320;2023-09-12T18:18:18;6.47;;;5.97;;
12846;SDS011;6492;48.128;8.320;2023-09-12T18:22:20;5.53;;;5.03;;
12846;SDS011;6492;48.128;8.320;2023-09-12T18:26:22;5.70;;;5.15;;
12846;SDS011;6492;48.128;8.320;2023-09-12T18:30:33;5.82;;;5.30;;
12846;SDS011;6492;48.128;8.320;2023-09-12T18:34:35;6.13;;;5.53;;
12846;SDS011;6492;48.128;8.320;2023-09-12T18:38:37;6.97;;;6.38;;
12846;SDS011;6492;48.128;8.320;2023-09-12T18:42:41;8.00;;;6.50;;
12846;SDS011;6492;48.128;8.320;2023-09-12T18:46:44;7.18;;;6.53;;
12846;SDS011;6492;48.128;8.320;2023-09-12T18:50:46;7.32;;;6.72;;
12846;SDS011;6492;48.128;8.320;2023-09-12T18:54:50;8.20;;;6.75;;
12846;SDS011;6492;48.128;8.320;2023-09-12T18:58:58;7.85;;;6.30;;
12846;SDS011;6492;48.128;8.320;2023-09-12T19:03:02;7.65;;;5.75;;
12846;SDS011;6492;48.128;8.320;2023-09-12T19:07:04;7.97;;;6.30;;
12846;SDS011;6492;48.128;8.320;2023-09-12T19:11:08;6.68;;;6.07;;
12846;SDS011;6492;48.128;8.320;2023-09-12T19:15:10;7.63;;;6.10;;
12846;SDS011;6492;48.128;8.320;2023-09-12T19:19:13;6.53;;;5.93;;
12846;SDS011;6492;48.128;8.320;2023-09-12T19:23:15;7.32;;;6.18;;
12846;SDS011;6492;48.128;8.320;2023-09-12T19:27:17;7.97;;;7.00;;
12846;SDS011;6492;48.128;8.320;2023-09-12T19:31:30;8.88;;;6.07;;
12846;SDS011;6492;48.128;8.320;2023-09-12T19:35:33;5.60;;;5.05;;
12846;SDS011;6492;48.128;8.320;2023-09-12T19:39:35;5.55;;;5.05;;
12846;SDS011;6492;48.128;8.320;2023-09-12T19:43:37;6.18;;;5.35;;
12846;SDS011;6492;48.128;8.320;2023-09-12T19:47:39;7.88;;;5.90;;
12846;SDS011;6492;48.128;8.320;2023-09-12T19:51:42;6.15;;;5.55;;
12846;SDS011;6492;48.128;8.320;2023-09-12T19:55:49;6.05;;;5.47;;
12846;SDS011;6492;48.128;8.320;2023-09-12T19:59:51;7.40;;;5.00;;
12846;SDS011;6492;48.128;8.320;2023-09-12T20:04:00;6.50;;;4.95;;
12846;SDS011;6492;48.128;8.320;2023-09-12T20:08:04;6.20;;;5.53;;
12846;SDS011;6492;48.128;8.320;2023-09-12T20:12:07;6.25;;;4.57;;
12846;SDS011;6492;48.128;8.320;2023-09-12T20:16:12;8.15;;;5.20;;
12846;SDS011;6492;48.128;8.320;2023-09-12T20:20:15;5.57;;;4.97;;
12846;SDS011;6492;48.128;8.320;2023-09-12T20:24:20;6.03;;;5.05;;
12846;SDS011;6492;48.128;8.320;2023-09-12T20:28:21;5.43;;;4.43;;
12846;SDS011;6492;48.128;8.320;2023-09-12T20:32:24;5.65;;;5.13;;
12846;SDS011;6492;48.128;8.320;2023-09-12T20:36:26;9.40;;;4.57;;
12846;SDS011;6492;48.128;8.320;2023-09-12T20:40:31;5.75;;;4.80;;
12846;SDS011;6492;48.128;8.320;2023-09-12T20:44:32;6.22;;;5.20;;
12846;SDS011;6492;48.128;8.320;2023-09-12T20:48:34;6.15;;;4.95;;
12846;SDS011;6492;48.128;8.320;2023-09-12T20:52:38;6.75;;;5.43;;
12846;SDS011;6492;48.128;8.320;2023-09-12T20:56:41;7.45;;;5.80;;
12846;SDS011;6492;48.128;8.320;2023-09-12T21:00:44;6.22;;;5.40;;
12846;SDS011;6492;48.128;8.320;2023-09-12T21:04:46;6.90;;;5.63;;
12846;SDS011;6492;48.128;8.320;2023-09-12T21:08:48;9.95;;;6.35;;
12846;SDS011;6492;48.128;8.320;2023-09-12T21:12:52;5.68;;;5.18;;
12846;SDS011;6492;48.128;8.320;2023-09-12T21:16:54;6.00;;;5.40;;
12846;SDS011;6492;48.128;8.320;2023-09-12T21:20:55;7.80;;;5.68;;
12846;SDS011;6492;48.128;8.320;2023-09-12T21:24:57;7.22;;;5.82;;
12846;SDS011;6492;48.128;8.320;2023-09-12T21:29:00;8.02;;;6.82;;
12846;SDS011;6492;48.128;8.320;2023-09-12T21:33:02;7.55;;;6.75;;
12846;SDS011;6492;48.128;8.320;2023-09-12T21:37:04;11.30;;;7.47;;
12846;SDS011;6492;48.128;8.320;2023-09-12T21:41:07;8.07;;;6.55;;
12846;SDS011;6492;48.128;8.320;2023-09-12T21:45:11;6.70;;;5.78;;
12846;SDS011;6492;48.128;8.320;2023-09-12T21:49:14;7.65;;;6.47;;
12846;SDS011;6492;48.128;8.320;2023-09-12T21:53:16;8.77;;;7.13;;
12846;SDS011;6492;48.128;8.320;2023-09-12T21:57:18;9.32;;;6.93;;
12846;SDS011;6492;48.128;8.320;2023-09-12T22:01:21;8.00;;;7.20;;
12846;SDS011;6492;48.128;8.320;2023-09-12T22:05:23;8.32;;;7.20;;
12846;SDS011;6492;48.128;8.320;2023-09-12T22:09:25;8.23;;;6.45;;
12846;SDS011;6492;48.128;8.320;2023-09-12T22:13:27;10.27;;;7.53;;
12846;SDS011;6492;48.128;8.320;2023-09-12T22:17:31;8.80;;;7.03;;
12846;SDS011;6492;48.128;8.320;2023-09-12T22:21:33;9.13;;;7.20;;
12846;SDS011;6492;48.128;8.320;2023-09-12T22:25:35;8.60;;;6.72;;
12846;SDS011;6492;48.128;8.320;2023-09-12T22:29:37;9.65;;;7.35;;
12846;SDS011;6492;48.128;8.320;2023-09-12T22:33:40;8.07;;;6.85;;
12846;SDS011;6492;48.128;8.320;2023-09-12T22:37:42;9.90;;;7.13;;
12846;SDS011;6492;48.128;8.320;2023-09-12T22:45:55;9.80;;;8.18;;
12846;SDS011;6492;48.128;8.320;2023-09-12T22:49:58;8.80;;;7.70;;
12846;SDS011;6492;48.128;8.320;2023-09-12T22:54:04;10.02;;;6.72;;
12846;SDS011;6492;48.128;8.320;2023-09-12T22:58:06;8.15;;;6.10;;
12846;SDS011;6492;48.128;8.320;2023-09-12T23:02:08;6.45;;;5.85;;
12846;SDS011;6492;48.128;8.320;2023-09-12T23:06:11;6.70;;;5.93;;
12846;SDS011;6492;48.128;8.320;2023-09-12T23:10:13;7.40;;;6.40;;
12846;SDS011;6492;48.128;8.320;2023-09-12T23:14:16;7.38;;;6.63;;
12846;SDS011;6492;48.128;8.320;2023-09-12T23:18:17;7.10;;;6.30;;
12846;SDS011;6492;48.128;8.320;2023-09-12T23:22:21;7.10;;;6.40;;
12846;SDS011;6492;48.128;8.320;2023-09-12T23:26:22;7.47;;;6.73;;
12846;SDS011;6492;48.128;8.320;2023-09-12T23:30:24;7.03;;;6.33;;
12846;SDS011;6492;48.128;8.320;2023-09-12T23:34:26;6.73;;;5.80;;
12846;SDS011;6492;48.128;8.320;2023-09-12T23:38:30;7.53;;;6.63;;
12846;SDS011;6492;48.128;8.320;2023-09-12T23:42:31;6.80;;;6.10;;
12846;SDS011;6492;48.128;8.320;2023-09-12T23:46:33;9.30;;;7.43;;
12846;SDS011;6492;48.128;8.320;2023-09-12T23:50:35;8.82;;;7.93;;
12846;SDS011;6492;48.128;8.320;2023-09-12T23:54:38;9.23;;;7.70;;
12846;SDS011;6492;48.128;8.320;2023-09-12T23:58:40;8.53;;;7.73;;
